sensor_id;sensor_type;location;lat;lon;timestamp;pressure;altitude;pressure_sealevel;temperature;humidity
47104;BME280;32853;52.164;5.400;2023-03-20T00:02:22;101855.63;;;11.24;100.00
47104;BME280;32853;52.164;5.400;2023-03-20T00:04:49;101857.47;;;11.19;100.00
47104;BME280;32853;52.164;5.400;2023-03-20T00:07:44;101850.38;;;11.24;100.00
47104;BME280;32853;52.164;5.400;2023-03-20T00:10:20;101849.94;;;11.09;100.00
47104;BME280;32853;52.164;5.400;2023-03-20T00:12:50;101862.72;;;11.19;100.00
47104;BME280;32853;52.164;5.400;2023-03-20T00:15:41;101863.72;;;11.15;100.00
47104;BME280;32853;52.164;5.400;2023-03-20T00:18:20;101849.94;;;11.07;100.00
47104;BME280;32853;52.164;5.400;2023-03-20T00:21:00;101858.38;;;11.18;100.00
47104;BME280;32853;52.164;5.400;2023-03-20T00:23:27;101825.06;;;10.91;100.00
47104;BME280;32853;52.164;5.400;2023-03-20T00:25:54;101861.13;;;11.14;100.00
47104;BME280;32853;52.164;5.400;2023-03-20T00:31:35;101855.31;;;11.02;100.00
47104;BME280;32853;52.164;5.400;2023-03-20T00:34:08;101851.78;;;11.03;100.00
47104;BME280;32853;52.164;5.400;2023-03-20T00:36:34;101844.97;;;10.96;100.00
47104;BME280;32853;52.164;5.400;2023-03-20T00:38:59;101836.53;;;10.85;100.00
47104;BME280;32853;52.164;5.400;2023-03-20T00:42:03;101809.69;;;10.79;100.00
47104;BME280;32853;52.164;5.400;2023-03-20T00:44:35;101839.88;;;10.92;100.00
47104;BME280;32853;52.164;5.400;2023-03-20T00:47:31;101862.91;;;11.13;100.00
47104;BME280;32853;52.164;5.400;2023-03-20T00:49:58;101844.13;;;10.97;100.00
47104;BME280;32853;52.164;5.400;2023-03-20T00:52:28;101875.25;;;11.06;100.00
47104;BME280;32853;52.164;5.400;2023-03-20T00:54:56;101861.50;;;11.00;100.00
47104;BME280;32853;52.164;5.400;2023-03-20T00:57:25;101861.44;;;11.01;100.00
47104;BME280;32853;52.164;5.400;2023-03-20T00:59:53;101891.19;;;10.99;100.00
47104;BME280;32853;52.164;5.400;2023-03-20T01:02:28;101910.28;;;11.02;100.00
47104;BME280;32853;52.164;5.400;2023-03-20T01:04:54;101913.84;;;11.00;100.00
47104;BME280;32853;52.164;5.400;2023-03-20T01:07:19;101918.13;;;11.02;100.00
47104;BME280;32853;52.164;5.400;2023-03-20T01:09:47;101834.56;;;10.59;100.00
47104;BME280;32853;52.164;5.400;2023-03-20T01:12:13;101852.63;;;10.70;100.00
47104;BME280;32853;52.164;5.400;2023-03-20T01:14:40;101871.28;;;10.92;100.00
47104;BME280;32853;52.164;5.400;2023-03-20T01:17:08;101868.31;;;11.05;100.00
47104;BME280;32853;52.164;5.400;2023-03-20T01:19:39;101886.00;;;10.96;100.00
47104;BME280;32853;52.164;5.400;2023-03-20T01:22:05;101899.84;;;11.01;100.00
47104;BME280;32853;52.164;5.400;2023-03-20T01:24:30;101838.91;;;10.60;100.00
47104;BME280;32853;52.164;5.400;2023-03-20T01:26:56;101868.94;;;10.81;100.00
47104;BME280;32853;52.164;5.400;2023-03-20T01:29:24;101896.34;;;11.02;100.00
47104;BME280;32853;52.164;5.400;2023-03-20T01:31:51;101891.09;;;11.02;100.00
47104;BME280;32853;52.164;5.400;2023-03-20T01:34:17;101899.94;;;10.98;100.00
47104;BME280;32853;52.164;5.400;2023-03-20T01:36:49;101906.03;;;10.98;100.00
47104;BME280;32853;52.164;5.400;2023-03-20T01:39:14;101896.16;;;11.08;100.00
47104;BME280;32853;52.164;5.400;2023-03-20T01:41:57;101882.44;;;11.00;100.00
47104;BME280;32853;52.164;5.400;2023-03-20T01:44:31;101862.88;;;10.79;100.00
47104;BME280;32853;52.164;5.400;2023-03-20T01:46:57;101893.03;;;10.94;100.00
47104;BME280;32853;52.164;5.400;2023-03-20T01:51:51;101891.38;;;10.91;100.00
47104;BME280;32853;52.164;5.400;2023-03-20T01:54:25;101836.13;;;10.68;100.00
47104;BME280;32853;52.164;5.400;2023-03-20T01:59:24;101877.03;;;11.06;100.00
47104;BME280;32853;52.164;5.400;2023-03-20T02:01:55;101872.00;;;10.97;100.00
47104;BME280;32853;52.164;5.400;2023-03-20T02:04:26;101812.91;;;10.54;100.00
47104;BME280;32853;52.164;5.400;2023-03-20T02:06:53;101886.91;;;10.95;100.00
47104;BME280;32853;52.164;5.400;2023-03-20T02:09:27;101834.63;;;10.58;100.00
47104;BME280;32853;52.164;5.400;2023-03-20T02:11:59;101847.56;;;10.62;100.00
47104;BME280;32853;52.164;5.400;2023-03-20T02:14:25;101850.88;;;10.70;100.00
47104;BME280;32853;52.164;5.400;2023-03-20T02:16:51;101862.31;;;10.66;100.00
47104;BME280;32853;52.164;5.400;2023-03-20T02:19:49;101880.41;;;10.75;100.00
47104;BME280;32853;52.164;5.400;2023-03-20T02:31:15;101856.97;;;10.71;100.00
47104;BME280;32853;52.164;5.400;2023-03-20T02:45:30;101863.28;;;10.62;100.00
47104;BME280;32853;52.164;5.400;2023-03-20T02:50:58;101843.69;;;10.43;100.00
47104;BME280;32853;52.164;5.400;2023-03-20T02:53:48;101848.72;;;10.51;100.00
47104;BME280;32853;52.164;5.400;2023-03-20T02:56:40;101828.75;;;10.48;100.00
47104;BME280;32853;52.164;5.400;2023-03-20T02:59:28;101831.91;;;10.61;100.00
47104;BME280;32853;52.164;5.400;2023-03-20T03:02:17;101797.53;;;10.40;100.00
47104;BME280;32853;52.164;5.400;2023-03-20T03:04:54;101605.16;;;9.22;100.00
47104;BME280;32853;52.164;5.400;2023-03-20T03:07:23;101801.91;;;10.40;100.00
47104;BME280;32853;52.164;5.400;2023-03-20T03:09:56;101768.25;;;10.26;100.00
47104;BME280;32853;52.164;5.400;2023-03-20T03:12:28;101801.25;;;10.30;100.00
47104;BME280;32853;52.164;5.400;2023-03-20T03:14:59;101752.50;;;9.90;100.00
47104;BME280;32853;52.164;5.400;2023-03-20T03:17:30;101761.19;;;9.91;100.00
47104;BME280;32853;52.164;5.400;2023-03-20T03:20:13;101754.56;;;9.75;100.00
47104;BME280;32853;52.164;5.400;2023-03-20T03:22:42;101775.25;;;9.84;100.00
47104;BME280;32853;52.164;5.400;2023-03-20T03:25:09;101829.41;;;10.17;100.00
47104;BME280;32853;52.164;5.400;2023-03-20T03:27:38;101675.38;;;9.34;100.00
47104;BME280;32853;52.164;5.400;2023-03-20T03:30:21;101808.44;;;10.21;100.00
47104;BME280;32853;52.164;5.400;2023-03-20T03:33:17;101805.75;;;10.25;100.00
47104;BME280;32853;52.164;5.400;2023-03-20T03:35:45;101808.44;;;10.19;100.00
47104;BME280;32853;52.164;5.400;2023-03-20T03:46:12;101799.47;;;9.92;100.00
47104;BME280;32853;52.164;5.400;2023-03-20T03:48:48;101719.50;;;9.46;100.00
47104;BME280;32853;52.164;5.400;2023-03-20T03:51:20;101797.63;;;9.97;100.00
47104;BME280;32853;52.164;5.400;2023-03-20T03:53:53;101801.19;;;9.93;100.00
47104;BME280;32853;52.164;5.400;2023-03-20T03:56:22;101789.06;;;9.90;100.00
47104;BME280;32853;52.164;5.400;2023-03-20T03:58:52;101782.16;;;9.88;100.00
47104;BME280;32853;52.164;5.400;2023-03-20T04:01:46;101785.81;;;9.79;100.00
47104;BME280;32853;52.164;5.400;2023-03-20T04:04:13;101770.22;;;9.76;100.00
47104;BME280;32853;52.164;5.400;2023-03-20T04:06:39;101765.94;;;9.72;100.00
47104;BME280;32853;52.164;5.400;2023-03-20T04:09:08;101761.88;;;9.59;100.00
47104;BME280;32853;52.164;5.400;2023-03-20T04:11:34;101776.56;;;9.65;100.00
47104;BME280;32853;52.164;5.400;2023-03-20T04:14:00;101714.56;;;9.32;100.00
47104;BME280;32853;52.164;5.400;2023-03-20T04:16:30;101774.59;;;9.76;100.00
47104;BME280;32853;52.164;5.400;2023-03-20T04:18:59;101752.38;;;9.56;100.00
47104;BME280;32853;52.164;5.400;2023-03-20T04:21:33;101769.50;;;9.70;100.00
47104;BME280;32853;52.164;5.400;2023-03-20T04:23:59;101722.28;;;9.37;100.00
47104;BME280;32853;52.164;5.400;2023-03-20T04:26:25;101742.03;;;9.50;100.00
47104;BME280;32853;52.164;5.400;2023-03-20T04:28:51;101764.53;;;9.57;100.00
47104;BME280;32853;52.164;5.400;2023-03-20T04:31:17;101761.97;;;9.54;100.00
47104;BME280;32853;52.164;5.400;2023-03-20T04:33:43;101771.56;;;9.54;100.00
47104;BME280;32853;52.164;5.400;2023-03-20T04:36:08;101756.31;;;9.34;100.00
47104;BME280;32853;52.164;5.400;2023-03-20T04:38:36;101778.47;;;9.56;100.00
47104;BME280;32853;52.164;5.400;2023-03-20T04:41:07;101739.81;;;9.30;100.00
47104;BME280;32853;52.164;5.400;2023-03-20T04:43:32;101768.84;;;9.58;100.00
47104;BME280;32853;52.164;5.400;2023-03-20T04:45:58;101728.09;;;9.10;100.00
47104;BME280;32853;52.164;5.400;2023-03-20T04:48:25;101784.00;;;9.41;100.00
47104;BME280;32853;52.164;5.400;2023-03-20T04:50:52;101757.13;;;9.36;100.00
47104;BME280;32853;52.164;5.400;2023-03-20T04:53:17;101777.97;;;9.38;100.00
47104;BME280;32853;52.164;5.400;2023-03-20T04:55:44;101782.22;;;9.43;100.00
47104;BME280;32853;52.164;5.400;2023-03-20T04:58:10;101736.63;;;9.16;100.00
47104;BME280;32853;52.164;5.400;2023-03-20T05:00:35;101735.59;;;9.25;100.00
47104;BME280;32853;52.164;5.400;2023-03-20T05:03:00;101762.28;;;9.39;100.00
47104;BME280;32853;52.164;5.400;2023-03-20T05:05:26;101755.47;;;9.32;100.00
47104;BME280;32853;52.164;5.400;2023-03-20T05:07:53;101731.31;;;9.22;100.00
47104;BME280;32853;52.164;5.400;2023-03-20T05:10:25;101720.00;;;9.22;100.00
47104;BME280;32853;52.164;5.400;2023-03-20T05:13:20;101756.94;;;9.45;100.00
47104;BME280;32853;52.164;5.400;2023-03-20T05:15:45;101747.44;;;9.41;100.00
47104;BME280;32853;52.164;5.400;2023-03-20T05:18:21;101754.63;;;9.31;100.00
47104;BME280;32853;52.164;5.400;2023-03-20T05:20:48;101761.50;;;9.36;100.00
47104;BME280;32853;52.164;5.400;2023-03-20T05:23:13;101765.97;;;9.29;100.00
47104;BME280;32853;52.164;5.400;2023-03-20T05:25:40;101712.41;;;9.11;100.00
47104;BME280;32853;52.164;5.400;2023-03-20T05:28:05;101766.59;;;9.40;100.00
47104;BME280;32853;52.164;5.400;2023-03-20T05:30:31;101757.72;;;9.49;100.00
47104;BME280;32853;52.164;5.400;2023-03-20T05:33:01;101672.44;;;9.08;100.00
47104;BME280;32853;52.164;5.400;2023-03-20T05:35:26;101725.09;;;9.28;100.00
47104;BME280;32853;52.164;5.400;2023-03-20T05:37:51;101758.72;;;9.43;100.00
47104;BME280;32853;52.164;5.400;2023-03-20T05:40:19;101709.50;;;9.25;100.00
47104;BME280;32853;52.164;5.400;2023-03-20T05:42:48;101762.06;;;9.50;100.00
47104;BME280;32853;52.164;5.400;2023-03-20T05:45:18;101775.28;;;9.42;100.00
47104;BME280;32853;52.164;5.400;2023-03-20T05:47:45;101751.13;;;9.32;100.00
47104;BME280;32853;52.164;5.400;2023-03-20T05:50:14;101722.63;;;9.22;100.00
47104;BME280;32853;52.164;5.400;2023-03-20T05:52:40;101779.38;;;9.55;100.00
47104;BME280;32853;52.164;5.400;2023-03-20T05:55:06;101690.25;;;8.87;100.00
47104;BME280;32853;52.164;5.400;2023-03-20T05:57:33;101789.59;;;9.23;100.00
47104;BME280;32853;52.164;5.400;2023-03-20T05:59:59;101734.63;;;8.84;100.00
47104;BME280;32853;52.164;5.400;2023-03-20T06:02:25;101763.66;;;9.14;100.00
47104;BME280;32853;52.164;5.400;2023-03-20T06:04:50;101797.00;;;9.44;100.00
47104;BME280;32853;52.164;5.400;2023-03-20T06:07:26;101782.22;;;9.42;100.00
47104;BME280;32853;52.164;5.400;2023-03-20T06:09:52;101769.84;;;9.51;100.00
47104;BME280;32853;52.164;5.400;2023-03-20T06:12:29;101771.00;;;9.38;100.00
47104;BME280;32853;52.164;5.400;2023-03-20T06:14:55;101775.16;;;9.48;100.00
47104;BME280;32853;52.164;5.400;2023-03-20T06:17:22;101739.31;;;9.13;100.00
47104;BME280;32853;52.164;5.400;2023-03-20T06:19:54;101750.25;;;9.32;100.00
47104;BME280;32853;52.164;5.400;2023-03-20T06:22:29;101735.66;;;9.22;100.00
47104;BME280;32853;52.164;5.400;2023-03-20T06:24:58;101785.88;;;9.35;100.00
47104;BME280;32853;52.164;5.400;2023-03-20T06:27:25;101756.59;;;9.19;100.00
47104;BME280;32853;52.164;5.400;2023-03-20T06:29:58;101735.16;;;9.03;100.00
47104;BME280;32853;52.164;5.400;2023-03-20T06:32:32;101788.50;;;9.35;100.00
47104;BME280;32853;52.164;5.400;2023-03-20T06:35:06;101786.69;;;9.37;100.00
47104;BME280;32853;52.164;5.400;2023-03-20T06:37:32;101767.97;;;9.15;100.00
47104;BME280;32853;52.164;5.400;2023-03-20T06:39:58;101803.31;;;9.31;100.00
47104;BME280;32853;52.164;5.400;2023-03-20T06:42:25;101733.66;;;8.91;100.00
47104;BME280;32853;52.164;5.400;2023-03-20T06:44:50;101798.97;;;9.33;100.00
47104;BME280;32853;52.164;5.400;2023-03-20T06:47:27;101806.03;;;9.26;100.00
47104;BME280;32853;52.164;5.400;2023-03-20T06:49:57;101811.88;;;9.39;100.00
47104;BME280;32853;52.164;5.400;2023-03-20T06:52:23;101771.34;;;9.21;100.00
47104;BME280;32853;52.164;5.400;2023-03-20T06:54:49;101804.63;;;9.09;100.00
47104;BME280;32853;52.164;5.400;2023-03-20T06:57:18;101792.09;;;9.27;100.00
47104;BME280;32853;52.164;5.400;2023-03-20T06:59:43;101752.66;;;8.98;100.00
47104;BME280;32853;52.164;5.400;2023-03-20T07:02:13;101797.41;;;9.23;100.00
47104;BME280;32853;52.164;5.400;2023-03-20T07:04:38;101761.31;;;9.00;100.00
47104;BME280;32853;52.164;5.400;2023-03-20T07:07:18;101799.09;;;9.25;100.00
47104;BME280;32853;52.164;5.400;2023-03-20T07:09:44;101682.16;;;8.55;100.00
47104;BME280;32853;52.164;5.400;2023-03-20T07:12:14;101632.03;;;8.39;100.00
47104;BME280;32853;52.164;5.400;2023-03-20T07:14:48;101649.16;;;8.52;100.00
47104;BME280;32853;52.164;5.400;2023-03-20T07:17:14;101593.53;;;8.04;100.00
47104;BME280;32853;52.164;5.400;2023-03-20T07:19:39;101806.72;;;9.36;100.00
47104;BME280;32853;52.164;5.400;2023-03-20T07:22:15;101766.16;;;9.18;100.00
47104;BME280;32853;52.164;5.400;2023-03-20T07:24:42;101737.25;;;8.84;100.00
47104;BME280;32853;52.164;5.400;2023-03-20T07:27:08;101655.22;;;8.54;100.00
47104;BME280;32853;52.164;5.400;2023-03-20T07:29:33;101750.91;;;8.97;100.00
47104;BME280;32853;52.164;5.400;2023-03-20T07:31:59;101813.66;;;9.37;100.00
47104;BME280;32853;52.164;5.400;2023-03-20T07:34:25;101810.94;;;9.43;100.00
47104;BME280;32853;52.164;5.400;2023-03-20T07:39:20;101807.28;;;9.53;100.00
47104;BME280;32853;52.164;5.400;2023-03-20T07:42:05;101819.22;;;9.64;100.00
47104;BME280;32853;52.164;5.400;2023-03-20T07:44:30;101767.03;;;9.19;100.00
47104;BME280;32853;52.164;5.400;2023-03-20T07:46:59;101814.47;;;9.42;100.00
47104;BME280;32853;52.164;5.400;2023-03-20T07:49:24;101685.31;;;8.72;100.00
47104;BME280;32853;52.164;5.400;2023-03-20T07:51:50;101791.47;;;9.15;100.00
47104;BME280;32853;52.164;5.400;2023-03-20T07:54:16;101811.84;;;9.42;100.00
47104;BME280;32853;52.164;5.400;2023-03-20T07:56:42;101803.47;;;9.25;100.00
47104;BME280;32853;52.164;5.400;2023-03-20T07:59:08;101774.78;;;9.23;100.00
47104;BME280;32853;52.164;5.400;2023-03-20T08:01:34;101804.66;;;9.52;100.00
47104;BME280;32853;52.164;5.400;2023-03-20T08:03:59;101816.81;;;9.54;100.00
47104;BME280;32853;52.164;5.400;2023-03-20T08:06:24;101812.31;;;9.61;100.00
47104;BME280;32853;52.164;5.400;2023-03-20T08:08:50;101809.44;;;9.73;100.00
47104;BME280;32853;52.164;5.400;2023-03-20T08:11:17;101804.84;;;9.84;100.00
47104;BME280;32853;52.164;5.400;2023-03-20T08:13:42;101818.22;;;9.71;100.00
47104;BME280;32853;52.164;5.400;2023-03-20T08:16:08;101787.22;;;9.55;100.00
47104;BME280;32853;52.164;5.400;2023-03-20T08:18:33;101819.16;;;9.68;100.00
47104;BME280;32853;52.164;5.400;2023-03-20T08:20:59;101825.16;;;9.72;100.00
47104;BME280;32853;52.164;5.400;2023-03-20T08:23:24;101789.13;;;9.46;100.00
47104;BME280;32853;52.164;5.400;2023-03-20T08:25:51;101729.34;;;9.34;100.00
47104;BME280;32853;52.164;5.400;2023-03-20T08:28:18;101596.00;;;8.61;100.00
47104;BME280;32853;52.164;5.400;2023-03-20T08:30:43;101728.25;;;9.44;100.00
47104;BME280;32853;52.164;5.400;2023-03-20T08:33:09;101771.03;;;9.78;100.00
47104;BME280;32853;52.164;5.400;2023-03-20T08:35:35;101822.03;;;9.96;100.00
47104;BME280;32853;52.164;5.400;2023-03-20T08:38:01;101796.91;;;9.90;100.00
47104;BME280;32853;52.164;5.400;2023-03-20T08:40:27;101820.31;;;9.95;100.00
47104;BME280;32853;52.164;5.400;2023-03-20T08:42:53;101792.97;;;9.71;100.00
47104;BME280;32853;52.164;5.400;2023-03-20T08:45:18;101796.94;;;9.89;100.00
47104;BME280;32853;52.164;5.400;2023-03-20T08:47:46;101811.41;;;10.04;100.00
47104;BME280;32853;52.164;5.400;2023-03-20T08:50:12;101671.19;;;9.25;100.00
47104;BME280;32853;52.164;5.400;2023-03-20T08:52:37;101829.00;;;9.96;100.00
47104;BME280;32853;52.164;5.400;2023-03-20T08:55:11;101791.63;;;9.92;100.00
47104;BME280;32853;52.164;5.400;2023-03-20T08:57:37;101740.81;;;9.67;100.00
47104;BME280;32853;52.164;5.400;2023-03-20T09:00:04;101803.25;;;10.17;100.00
47104;BME280;32853;52.164;5.400;2023-03-20T09:02:39;101740.59;;;9.77;100.00
47104;BME280;32853;52.164;5.400;2023-03-20T09:05:17;101814.16;;;10.38;100.00
47104;BME280;32853;52.164;5.400;2023-03-20T09:07:56;101813.66;;;10.21;100.00
47104;BME280;32853;52.164;5.400;2023-03-20T09:10:23;101810.69;;;10.37;100.00
47104;BME280;32853;52.164;5.400;2023-03-20T09:12:48;101829.72;;;10.44;100.00
47104;BME280;32853;52.164;5.400;2023-03-20T09:15:14;101814.06;;;10.41;100.00
47104;BME280;32853;52.164;5.400;2023-03-20T09:17:39;101829.88;;;10.36;100.00
47104;BME280;32853;52.164;5.400;2023-03-20T09:20:05;101807.59;;;10.20;100.00
47104;BME280;32853;52.164;5.400;2023-03-20T09:22:30;101811.56;;;9.96;100.00
47104;BME280;32853;52.164;5.400;2023-03-20T09:25:07;101775.38;;;9.79;100.00
47104;BME280;32853;52.164;5.400;2023-03-20T09:27:33;101818.69;;;10.31;100.00
47104;BME280;32853;52.164;5.400;2023-03-20T09:30:12;101823.56;;;10.46;100.00
47104;BME280;32853;52.164;5.400;2023-03-20T09:32:44;101836.91;;;10.34;100.00
47104;BME280;32853;52.164;5.400;2023-03-20T09:35:10;101771.72;;;9.88;100.00
47104;BME280;32853;52.164;5.400;2023-03-20T09:37:35;101818.50;;;9.99;100.00
47104;BME280;32853;52.164;5.400;2023-03-20T09:40:05;101817.31;;;10.13;100.00
47104;BME280;32853;52.164;5.400;2023-03-20T09:45:42;101795.63;;;10.10;100.00
47104;BME280;32853;52.164;5.400;2023-03-20T09:48:34;101819.44;;;10.36;100.00
47104;BME280;32853;52.164;5.400;2023-03-20T09:51:20;101814.78;;;10.10;100.00
47104;BME280;32853;52.164;5.400;2023-03-20T09:53:54;101810.16;;;10.23;100.00
47104;BME280;32853;52.164;5.400;2023-03-20T09:56:24;101737.63;;;9.52;100.00
47104;BME280;32853;52.164;5.400;2023-03-20T09:59:02;101700.06;;;9.59;100.00
47104;BME280;32853;52.164;5.400;2023-03-20T10:01:41;101799.66;;;10.25;100.00
47104;BME280;32853;52.164;5.400;2023-03-20T10:04:09;101800.25;;;10.36;100.00
47104;BME280;32853;52.164;5.400;2023-03-20T10:06:35;101813.38;;;10.34;100.00
47104;BME280;32853;52.164;5.400;2023-03-20T10:09:05;101806.38;;;10.35;100.00
47104;BME280;32853;52.164;5.400;2023-03-20T10:12:00;101801.03;;;10.39;100.00
47104;BME280;32853;52.164;5.400;2023-03-20T10:17:49;101801.69;;;10.49;100.00
47104;BME280;32853;52.164;5.400;2023-03-20T10:23:41;101794.94;;;10.39;100.00
47104;BME280;32853;52.164;5.400;2023-03-20T10:26:20;101719.66;;;9.79;100.00
47104;BME280;32853;52.164;5.400;2023-03-20T10:29:01;101812.81;;;10.20;100.00
47104;BME280;32853;52.164;5.400;2023-03-20T10:36:53;101798.25;;;10.47;100.00
47104;BME280;32853;52.164;5.400;2023-03-20T10:42:16;101796.63;;;10.43;100.00
47104;BME280;32853;52.164;5.400;2023-03-20T10:44:50;101750.88;;;10.24;100.00
47104;BME280;32853;52.164;5.400;2023-03-20T10:47:20;101783.16;;;10.58;100.00
47104;BME280;32853;52.164;5.400;2023-03-20T10:49:53;101777.19;;;10.53;100.00
47104;BME280;32853;52.164;5.400;2023-03-20T10:52:32;101769.94;;;10.63;100.00
47104;BME280;32853;52.164;5.400;2023-03-20T10:55:15;101719.56;;;10.21;100.00
47104;BME280;32853;52.164;5.400;2023-03-20T10:57:51;101762.97;;;10.28;100.00
47104;BME280;32853;52.164;5.400;2023-03-20T11:00:22;101689.66;;;9.95;100.00
47104;BME280;32853;52.164;5.400;2023-03-20T11:02:47;101777.16;;;10.55;100.00
47104;BME280;32853;52.164;5.400;2023-03-20T11:05:29;101786.59;;;10.60;100.00
47104;BME280;32853;52.164;5.400;2023-03-20T11:08:05;101777.19;;;10.52;100.00
47104;BME280;32853;52.164;5.400;2023-03-20T11:10:33;101780.16;;;10.38;100.00
47104;BME280;32853;52.164;5.400;2023-03-20T11:13:12;101779.81;;;10.53;100.00
47104;BME280;32853;52.164;5.400;2023-03-20T11:15:40;101749.50;;;10.06;100.00
47104;BME280;32853;52.164;5.400;2023-03-20T11:18:10;101770.09;;;10.21;100.00
47104;BME280;32853;52.164;5.400;2023-03-20T11:20:49;101791.44;;;10.40;100.00
47104;BME280;32853;52.164;5.400;2023-03-20T11:23:18;101744.44;;;10.00;100.00
47104;BME280;32853;52.164;5.400;2023-03-20T11:25:59;101761.56;;;10.13;100.00
47104;BME280;32853;52.164;5.400;2023-03-20T11:28:55;101770.09;;;10.23;100.00
47104;BME280;32853;52.164;5.400;2023-03-20T11:31:37;101726.47;;;10.25;100.00
47104;BME280;32853;52.164;5.400;2023-03-20T11:36:29;101763.88;;;10.27;100.00
47104;BME280;32853;52.164;5.400;2023-03-20T11:39:01;101725.25;;;10.38;100.00
47104;BME280;32853;52.164;5.400;2023-03-20T11:41:51;101736.56;;;10.72;100.00
47104;BME280;32853;52.164;5.400;2023-03-20T11:44:25;101694.84;;;10.34;100.00
47104;BME280;32853;52.164;5.400;2023-03-20T11:47:14;101727.25;;;10.62;100.00
47104;BME280;32853;52.164;5.400;2023-03-20T11:49:53;101702.44;;;10.44;100.00
47104;BME280;32853;52.164;5.400;2023-03-20T11:52:30;101738.84;;;10.85;100.00
47104;BME280;32853;52.164;5.400;2023-03-20T11:54:59;101700.44;;;10.54;100.00
47104;BME280;32853;52.164;5.400;2023-03-20T12:00:04;101678.63;;;10.55;100.00
47104;BME280;32853;52.164;5.400;2023-03-20T12:02:30;101755.84;;;11.02;100.00
47104;BME280;32853;52.164;5.400;2023-03-20T12:04:59;101744.00;;;10.89;100.00
47104;BME280;32853;52.164;5.400;2023-03-20T12:07:31;101735.03;;;10.98;100.00
47104;BME280;32853;52.164;5.400;2023-03-20T12:10:10;101745.75;;;10.89;100.00
47104;BME280;32853;52.164;5.400;2023-03-20T12:13:00;101733.75;;;10.80;100.00
47104;BME280;32853;52.164;5.400;2023-03-20T12:15:33;101703.13;;;10.51;100.00
47104;BME280;32853;52.164;5.400;2023-03-20T12:18:35;101735.97;;;10.95;100.00
47104;BME280;32853;52.164;5.400;2023-03-20T12:23:48;101742.75;;;11.02;100.00
47104;BME280;32853;52.164;5.400;2023-03-20T12:26:23;101737.84;;;10.90;100.00
47104;BME280;32853;52.164;5.400;2023-03-20T12:29:35;101737.38;;;10.74;100.00
47104;BME280;32853;52.164;5.400;2023-03-20T12:32:01;101699.41;;;10.60;100.00
47104;BME280;32853;52.164;5.400;2023-03-20T12:34:43;101738.41;;;11.01;100.00
47104;BME280;32853;52.164;5.400;2023-03-20T12:37:11;101702.25;;;10.51;100.00
47104;BME280;32853;52.164;5.400;2023-03-20T12:39:59;101731.06;;;10.83;100.00
47104;BME280;32853;52.164;5.400;2023-03-20T12:43:03;101661.22;;;10.53;100.00
47104;BME280;32853;52.164;5.400;2023-03-20T12:45:40;101727.94;;;11.01;100.00
47104;BME280;32853;52.164;5.400;2023-03-20T12:48:34;101726.81;;;11.12;100.00
47104;BME280;32853;52.164;5.400;2023-03-20T12:51:24;101724.34;;;11.05;100.00
47104;BME280;32853;52.164;5.400;2023-03-20T12:54:09;101714.63;;;10.78;100.00
47104;BME280;32853;52.164;5.400;2023-03-20T13:00:07;101716.41;;;10.77;100.00
47104;BME280;32853;52.164;5.400;2023-03-20T13:02:50;101697.28;;;10.74;100.00
47104;BME280;32853;52.164;5.400;2023-03-20T13:05:31;101713.91;;;11.04;100.00
47104;BME280;32853;52.164;5.400;2023-03-20T13:13:45;101711.84;;;11.15;100.00
47104;BME280;32853;52.164;5.400;2023-03-20T13:22:07;101690.34;;;11.04;100.00
47104;BME280;32853;52.164;5.400;2023-03-20T13:24:47;101698.84;;;11.12;100.00
47104;BME280;32853;52.164;5.400;2023-03-20T13:27:26;101691.25;;;11.03;100.00
47104;BME280;32853;52.164;5.400;2023-03-20T13:36:01;101687.94;;;10.98;100.00
47104;BME280;32853;52.164;5.400;2023-03-20T13:38:38;101646.72;;;10.73;100.00
47104;BME280;32853;52.164;5.400;2023-03-20T13:41:07;101689.69;;;10.96;100.00
47104;BME280;32853;52.164;5.400;2023-03-20T13:43:57;101675.25;;;11.14;100.00
47104;BME280;32853;52.164;5.400;2023-03-20T13:46:37;101689.69;;;10.97;100.00
47104;BME280;32853;52.164;5.400;2023-03-20T13:49:13;101655.47;;;10.72;100.00
47104;BME280;32853;52.164;5.400;2023-03-20T13:51:50;101615.03;;;10.53;100.00
47104;BME280;32853;52.164;5.400;2023-03-20T13:59:58;101678.56;;;11.20;100.00
47104;BME280;32853;52.164;5.400;2023-03-20T14:02:40;101680.38;;;11.17;100.00
47104;BME280;32853;52.164;5.400;2023-03-20T14:05:21;101678.38;;;11.26;100.00
47104;BME280;32853;52.164;5.400;2023-03-20T14:07:49;101663.13;;;11.11;100.00
47104;BME280;32853;52.164;5.400;2023-03-20T14:15:18;101643.00;;;10.82;100.00
47104;BME280;32853;52.164;5.400;2023-03-20T14:17:46;101683.47;;;11.01;100.00
47104;BME280;32853;52.164;5.400;2023-03-20T14:20:25;101669.06;;;10.87;100.00
47104;BME280;32853;52.164;5.400;2023-03-20T14:22:52;101646.22;;;10.92;100.00
47104;BME280;32853;52.164;5.400;2023-03-20T14:25:20;101641.13;;;10.87;100.00
47104;BME280;32853;52.164;5.400;2023-03-20T14:33:24;101670.72;;;11.19;100.00
47104;BME280;32853;52.164;5.400;2023-03-20T14:36:25;101668.97;;;11.19;100.00
47104;BME280;32853;52.164;5.400;2023-03-20T14:39:18;101668.34;;;11.11;100.00
47104;BME280;32853;52.164;5.400;2023-03-20T14:42:12;101667.44;;;11.12;100.00
47104;BME280;32853;52.164;5.400;2023-03-20T14:50:34;101658.78;;;11.10;100.00
47104;BME280;32853;52.164;5.400;2023-03-20T14:56:00;101667.28;;;11.17;100.00
47104;BME280;32853;52.164;5.400;2023-03-20T15:04:26;101659.16;;;10.96;100.00
47104;BME280;32853;52.164;5.400;2023-03-20T15:07:05;101621.50;;;10.71;100.00
47104;BME280;32853;52.164;5.400;2023-03-20T15:09:36;101666.16;;;10.96;100.00
47104;BME280;32853;52.164;5.400;2023-03-20T15:12:05;101645.22;;;10.96;100.00